New Salem, Illinois
Current Conditions -  °F | °C
As of 2:55 AM on Friday 24 Oct 2014 (Local Time) from KPPQ Reporting Station
Scattered Clouds Scattered Clouds  
Wind Chill: 55°   Ceiling: Unl
Heat Index: 55°   Visibility: 10mi
Dew Point: 51°   Wind: 5mph
Humidity: 87%   Direction: 280°W
Pressure: 30.08"   Gusts: NA
Location:  39.71°N, 90.85°W
Report Text: KPPQ 240755Z AUTO 28004KT 10SM SCT013 SCT018 13/11 A3008 RMK AO2 T01290108
Loading
Personal Weather Stations






























Interactive Weather Map
Tropical Storm Tracking
New forecast layout! Learn more

10-Day Weather Forecast

Advertisements
Track Severe Weather on mobile